createdAt,value
2019-04-13T00:02:43.051Z,60.20
2019-04-13T00:05:15.844Z,60.50
2019-04-13T00:07:48.764Z,60.80
2019-04-13T00:10:42.460Z,61.10
2019-04-13T00:13:14.523Z,61.40
2019-04-13T00:15:46.683Z,61.90
2019-04-13T00:18:22.599Z,62.20
2019-04-13T00:20:52.716Z,62.40
2019-04-13T00:23:24.625Z,62.80
2019-04-13T00:25:56.723Z,63.10
2019-04-13T00:28:26.814Z,63.10
2019-04-13T00:31:11.687Z,63.60
2019-04-13T00:33:41.805Z,63.90
2019-04-13T00:36:12.896Z,64.20
2019-04-13T00:38:42.983Z,64.50
2019-04-13T00:41:14.007Z,64.70
2019-04-13T00:43:50.055Z,65.30
2019-04-13T00:46:20.183Z,65.60
2019-04-13T00:48:52.227Z,66.10
2019-04-13T00:51:22.303Z,66.60
2019-04-13T00:53:53.307Z,67.00
2019-04-13T00:56:24.381Z,67.10
2019-04-13T00:58:56.447Z,67.80
2019-04-13T01:01:26.531Z,68.30
2019-04-13T01:03:56.627Z,68.50
2019-04-13T01:06:29.519Z,69.20
2019-04-13T01:09:01.588Z,69.50
2019-04-13T01:11:31.683Z,69.30
2019-04-13T01:14:02.802Z,69.70
2019-04-13T01:16:37.955Z,69.40
2019-04-13T01:19:11.459Z,69.20
2019-04-13T01:21:41.939Z,69.30
2019-04-13T01:24:12.063Z,69.90
2019-04-13T01:26:43.077Z,70.20
2019-04-13T01:29:24.283Z,70.70
2019-04-13T01:31:54.372Z,71.30
2019-04-13T01:34:26.427Z,71.60
2019-04-13T01:36:57.490Z,71.80
2019-04-13T01:39:28.516Z,72.40
2019-04-13T01:41:58.623Z,72.70
2019-04-13T01:44:29.671Z,73.70
2019-04-13T01:46:59.762Z,73.70
2019-04-13T01:49:30.839Z,73.80
2019-04-13T01:52:00.951Z,73.70
2019-04-13T01:54:41.027Z,73.90
2019-04-13T01:57:11.119Z,74.80
2019-04-13T01:59:43.179Z,75.00
2019-04-13T02:02:17.639Z,75.10
2019-04-13T02:05:01.477Z,75.30
2019-04-13T02:07:37.835Z,75.40
2019-04-13T02:10:11.652Z,75.70
2019-04-13T02:12:43.727Z,74.60
2019-04-13T02:15:14.188Z,74.60
2019-04-13T02:17:46.275Z,74.50
2019-04-13T02:20:19.098Z,74.80
2019-04-13T02:23:01.108Z,74.10
2019-04-13T02:25:32.227Z,74.00
2019-04-13T02:28:03.238Z,74.20
2019-04-13T02:30:35.320Z,73.90
2019-04-13T02:33:07.361Z,74.00
2019-04-13T02:35:42.416Z,73.70
2019-04-13T02:38:12.549Z,73.80
2019-04-13T02:40:43.549Z,74.50
2019-04-13T02:43:13.675Z,75.50
2019-04-13T02:45:44.796Z,75.60
2019-04-13T02:48:15.883Z,75.80
2019-04-13T02:50:46.011Z,74.50
2019-04-13T02:53:16.135Z,73.60
2019-04-13T02:55:47.279Z,74.40
2019-04-13T02:58:17.391Z,75.30
2019-04-13T03:00:53.231Z,76.30
2019-04-13T03:03:29.039Z,77.10
2019-04-13T03:06:03.309Z,77.90
2019-04-13T03:08:34.927Z,78.90
2019-04-13T03:11:05.092Z,80.20
2019-04-13T03:13:36.147Z,81.10
2019-04-13T03:16:19.947Z,82.60
2019-04-13T03:19:00.549Z,83.30
2019-04-13T03:21:30.627Z,84.80
2019-04-13T03:24:06.599Z,85.80
2019-04-13T03:26:37.607Z,86.70
2019-04-13T03:29:07.695Z,87.30
2019-04-13T03:31:37.940Z,87.80
2019-04-13T03:34:15.771Z,88.40
2019-04-13T03:36:46.771Z,89.70
2019-04-13T03:39:16.879Z,90.60
2019-04-13T03:41:46.967Z,91.40
2019-04-13T03:44:18.059Z,91.80
2019-04-13T03:46:49.133Z,92.20
2019-04-13T03:49:19.283Z,92.80
2019-04-13T03:51:50.385Z,93.10
2019-04-13T03:54:28.471Z,93.20
2019-04-13T03:56:58.699Z,93.60
2019-04-13T03:59:28.807Z,94.00
2019-04-13T04:01:59.840Z,94.20
2019-04-13T04:04:30.899Z,94.70
2019-04-13T04:07:02.952Z,95.70
2019-04-13T04:09:33.113Z,95.60
2019-04-13T04:12:03.203Z,95.80
2019-04-13T04:14:35.965Z,96.50
2019-04-13T04:17:06.090Z,98.00
2019-04-13T04:19:38.100Z,98.80
2019-04-13T04:22:11.168Z,99.20
2019-04-13T04:24:43.245Z,99.90
2019-04-13T04:27:14.325Z,99.60
2019-04-13T04:29:44.399Z,96.80
2019-04-13T04:32:15.496Z,95.80
2019-04-13T04:34:45.644Z,96.30
2019-04-13T04:37:17.779Z,97.00
2019-04-13T04:39:48.926Z,97.10
2019-04-13T04:42:19.015Z,96.40
2019-04-13T04:44:49.104Z,96.00
2019-04-13T04:47:19.219Z,96.10
2019-04-13T04:49:49.323Z,96.10
2019-04-13T04:52:21.374Z,94.60
2019-04-13T04:54:53.494Z,93.90
2019-04-13T04:57:25.539Z,94.50
2019-04-13T04:59:56.604Z,94.50
2019-04-13T05:02:27.612Z,93.80
2019-04-13T05:04:57.720Z,93.70
2019-04-13T05:07:34.692Z,93.10
2019-04-13T05:10:11.973Z,92.80
2019-04-13T05:12:44.340Z,92.80
2019-04-13T05:15:15.468Z,93.00
2019-04-13T05:17:45.584Z,93.20
2019-04-13T05:20:19.752Z,93.10
2019-04-13T05:22:49.841Z,92.10
2019-04-13T05:25:19.948Z,91.90
2019-04-13T05:27:50.999Z,91.30
2019-04-13T05:30:22.041Z,91.40
2019-04-13T05:32:52.124Z,91.40
2019-04-13T05:35:23.232Z,91.70
2019-04-13T05:37:54.244Z,92.60
2019-04-13T05:40:24.356Z,93.20
2019-04-13T05:42:55.393Z,92.50
2019-04-13T05:45:26.444Z,92.10
2019-04-13T05:47:58.526Z,91.40
2019-04-13T05:50:28.656Z,91.40
2019-04-13T05:53:02.741Z,90.50
2019-04-13T05:55:36.449Z,89.80
2019-04-13T05:58:06.564Z,89.70
2019-04-13T06:00:37.623Z,89.50
2019-04-13T06:03:07.744Z,90.00
2019-04-13T06:05:38.844Z,87.20
2019-04-13T06:08:08.976Z,84.00
2019-04-13T06:10:39.079Z,80.70
2019-04-13T06:13:10.156Z,79.10
2019-04-13T06:15:40.275Z,75.60
2019-04-13T06:18:20.716Z,73.10
2019-04-13T06:20:45.247Z,74.00
2019-04-13T06:23:22.187Z,71.80
2019-04-13T06:25:54.302Z,70.70
2019-04-13T06:28:26.036Z,71.00
2019-04-13T06:31:12.297Z,70.50
2019-04-13T06:33:52.813Z,69.00
2019-04-13T06:36:23.891Z,67.40
2019-04-13T06:39:00.334Z,68.20
2019-04-13T06:41:30.493Z,67.00
2019-04-13T06:44:01.304Z,66.00
2019-04-13T06:46:31.468Z,65.90
2019-04-13T06:49:01.561Z,64.80
2019-04-13T06:51:31.645Z,64.70
2019-04-13T06:54:01.774Z,64.10
2019-04-13T06:56:31.872Z,63.00
2019-04-13T06:59:03.010Z,61.00
2019-04-13T07:01:33.110Z,59.50
2019-04-13T07:04:03.209Z,61.30
2019-04-13T07:06:33.441Z,59.70
2019-04-13T07:09:07.440Z,59.80
2019-04-13T07:11:40.149Z,59.30
2019-04-13T07:14:12.780Z,58.50
2019-04-13T07:16:56.348Z,58.50
2019-04-13T07:19:28.371Z,57.40
2019-04-13T07:21:58.544Z,57.50
2019-04-13T07:24:29.463Z,56.00
2019-04-13T07:26:59.719Z,56.40
2019-04-13T07:29:30.855Z,54.30
2019-04-13T07:32:01.697Z,53.60
2019-04-13T07:34:33.929Z,54.30
2019-04-13T07:37:05.072Z,52.30
2019-04-13T07:39:35.151Z,51.60
2019-04-13T07:42:07.365Z,51.10
2019-04-13T07:44:40.083Z,50.40
2019-04-13T07:47:20.399Z,50.10
2019-04-13T07:50:09.012Z,50.00
2019-04-13T07:52:39.044Z,49.20
2019-04-13T07:55:09.272Z,48.50
2019-04-13T07:57:39.368Z,47.30
2019-04-13T08:00:10.100Z,45.40
2019-04-13T08:02:41.152Z,46.40
2019-04-13T08:05:12.268Z,45.00
2019-04-13T08:07:49.764Z,46.20
2019-04-13T08:10:14.936Z,45.90
2019-04-13T08:12:46.053Z,44.70
2019-04-13T08:15:16.312Z,46.00
2019-04-13T08:17:46.971Z,44.70
2019-04-13T08:20:24.620Z,43.80
2019-04-13T08:22:56.775Z,43.00
2019-04-13T08:25:26.880Z,41.90
2019-04-13T08:27:57.156Z,41.10
2019-04-13T08:30:29.123Z,40.10
2019-04-13T08:33:01.164Z,38.70
2019-04-13T08:35:31.460Z,37.70
2019-04-13T08:38:12.505Z,37.30
2019-04-13T08:40:35.857Z,35.60
2019-04-13T08:43:06.908Z,34.20
2019-04-13T08:45:44.362Z,34.00
2019-04-13T08:48:14.661Z,33.60
2019-04-13T08:50:45.704Z,30.90
2019-04-13T08:53:16.798Z,31.80
2019-04-13T08:55:47.864Z,32.50
2019-04-13T08:58:19.659Z,32.00
2019-04-13T09:00:56.582Z,29.90
2019-04-13T09:03:27.670Z,29.30
2019-04-13T09:05:59.676Z,29.00
2019-04-13T09:08:33.144Z,28.90
2019-04-13T09:11:02.210Z,27.60
2019-04-13T09:13:34.473Z,28.20
2019-04-13T09:16:06.542Z,27.40
2019-04-13T09:18:48.334Z,27.60
2019-04-13T09:21:32.440Z,27.00
2019-04-13T09:24:02.540Z,27.80
2019-04-13T09:26:36.277Z,28.50
2019-04-13T09:29:07.064Z,27.10
2019-04-13T09:31:37.200Z,28.40
2019-04-13T09:34:10.338Z,27.30
2019-04-13T09:36:40.016Z,26.50
2019-04-13T09:39:10.304Z,26.80
2019-04-13T09:41:40.424Z,26.30
2019-04-13T09:44:12.164Z,25.00
2019-04-13T09:46:42.544Z,25.00
2019-04-13T09:49:13.204Z,25.00
2019-04-13T09:51:47.080Z,25.10
2019-04-13T09:54:16.240Z,25.20
2019-04-13T09:56:47.340Z,24.70
2019-04-13T09:59:17.452Z,25.00
2019-04-13T10:01:48.720Z,24.60
2019-04-13T10:04:18.812Z,24.70
2019-04-13T10:06:49.864Z,24.90
2019-04-13T10:09:19.968Z,25.20
2019-04-13T10:11:58.213Z,26.60
2019-04-13T10:14:36.121Z,25.90
2019-04-13T10:17:08.752Z,24.70
2019-04-13T10:19:40.101Z,24.70
2019-04-13T10:22:11.679Z,24.40
2019-04-13T10:24:42.696Z,24.10
2019-04-13T10:27:19.424Z,25.20
2019-04-13T10:29:52.012Z,25.20
2019-04-13T10:32:22.288Z,26.90
2019-04-13T10:34:52.387Z,27.10
2019-04-13T10:37:23.789Z,26.70
2019-04-13T10:39:54.880Z,26.70
2019-04-13T10:42:26.614Z,25.60
2019-04-13T10:45:15.264Z,25.80
2019-04-13T10:48:04.444Z,24.20
2019-04-13T10:50:40.304Z,23.50
2019-04-13T10:53:11.444Z,23.50
2019-04-13T10:55:41.592Z,22.40
2019-04-13T10:58:12.594Z,22.60
2019-04-13T11:00:48.855Z,23.00
2019-04-13T11:03:21.168Z,23.30
2019-04-13T11:05:53.112Z,22.70
2019-04-13T11:08:24.189Z,22.80
2019-04-13T11:10:54.268Z,21.90
2019-04-13T11:13:25.293Z,23.00
2019-04-13T11:15:56.416Z,23.70
2019-04-13T11:18:28.529Z,24.20
2019-04-13T11:20:58.628Z,24.00
2019-04-13T11:23:36.002Z,24.90
2019-04-13T11:26:03.236Z,25.10
2019-04-13T11:28:33.532Z,26.40
2019-04-13T11:31:05.572Z,26.60
2019-04-13T11:33:35.672Z,26.80
2019-04-13T11:36:07.519Z,26.50
2019-04-13T11:38:39.204Z,26.00
2019-04-13T11:41:20.948Z,26.00
2019-04-13T11:44:09.268Z,26.00
2019-04-13T11:46:49.884Z,25.70
2019-04-13T11:49:24.300Z,25.60
2019-04-13T11:51:56.404Z,25.30
2019-04-13T11:54:44.745Z,26.00
2019-04-13T11:57:15.856Z,26.80
2019-04-13T11:59:46.912Z,27.60
2019-04-13T12:02:26.697Z,27.90
2019-04-13T12:05:06.678Z,28.40
2019-04-13T12:07:47.473Z,28.10
2019-04-13T12:10:36.390Z,27.90
2019-04-13T12:13:13.804Z,26.60
2019-04-13T12:15:45.548Z,26.70
2019-04-13T12:18:25.741Z,28.40
2019-04-13T12:20:59.488Z,27.60
2019-04-13T12:23:30.598Z,27.40
2019-04-13T12:26:01.756Z,27.50
2019-04-13T12:28:32.002Z,27.50
2019-04-13T12:31:03.056Z,27.80
2019-04-13T12:33:33.132Z,26.30
2019-04-13T12:36:03.247Z,26.20
2019-04-13T12:38:33.380Z,26.40
2019-04-13T12:41:07.101Z,25.90
2019-04-13T12:43:38.180Z,26.00
2019-04-13T12:46:10.304Z,25.40
2019-04-13T12:48:41.432Z,24.50
2019-04-13T12:51:12.598Z,23.30
2019-04-13T12:53:42.684Z,22.10
2019-04-13T12:56:13.020Z,21.50
2019-04-13T12:58:45.044Z,22.70
2019-04-13T13:01:24.396Z,23.40
2019-04-13T13:03:56.440Z,23.40
2019-04-13T13:06:31.653Z,23.60
2019-04-13T13:09:01.570Z,24.00
2019-04-13T13:11:31.721Z,25.30
2019-04-13T13:14:02.778Z,24.60
2019-04-13T13:16:34.800Z,25.90
2019-04-13T13:19:05.876Z,26.10
2019-04-13T13:21:38.484Z,26.50
2019-04-13T13:24:07.756Z,27.20
2019-04-13T13:26:47.777Z,27.00
2019-04-13T13:29:12.165Z,27.00
2019-04-13T13:31:42.264Z,27.50
2019-04-13T13:34:13.313Z,28.00
2019-04-13T13:36:43.406Z,27.60
2019-04-13T13:39:14.774Z,28.40
2019-04-13T13:41:49.020Z,28.10
2019-04-13T13:44:22.004Z,27.60
2019-04-13T13:46:53.044Z,28.40
2019-04-13T13:49:30.965Z,28.10
2019-04-13T13:52:05.684Z,28.90
2019-04-13T13:54:33.784Z,28.40
2019-04-13T13:57:05.811Z,28.00
2019-04-13T13:59:35.928Z,28.30
2019-04-13T14:02:12.953Z,28.40
2019-04-13T14:04:43.316Z,28.60
2019-04-13T14:07:13.440Z,29.30
2019-04-13T14:09:47.160Z,29.10
2019-04-13T14:12:17.265Z,28.70
2019-04-13T14:14:48.305Z,28.50
2019-04-13T14:17:18.913Z,27.70
2019-04-13T14:19:51.004Z,27.70
2019-04-13T14:22:22.044Z,27.60
2019-04-13T14:24:53.100Z,27.50
2019-04-13T14:27:25.132Z,28.00
2019-04-13T14:29:55.230Z,27.70
2019-04-13T14:32:25.364Z,26.60
2019-04-13T14:35:00.416Z,27.10
2019-04-13T14:37:31.458Z,27.20
2019-04-13T14:40:03.491Z,27.60
2019-04-13T14:42:34.352Z,27.80
2019-04-13T14:45:08.340Z,28.60
2019-04-13T14:47:39.386Z,28.80
2019-04-13T14:50:10.680Z,28.20
2019-04-13T14:52:46.432Z,27.30
2019-04-13T14:55:16.616Z,27.60
2019-04-13T14:57:46.704Z,27.50
2019-04-13T15:00:21.147Z,27.10
2019-04-13T15:02:51.012Z,27.80
2019-04-13T15:05:24.016Z,28.10
2019-04-13T15:07:58.772Z,28.30
2019-04-13T15:10:29.532Z,28.10
2019-04-13T15:13:01.942Z,27.60
2019-04-13T15:15:36.664Z,27.00
2019-04-13T15:18:17.833Z,28.10
2019-04-13T15:20:49.407Z,28.90
2019-04-13T15:23:21.428Z,29.70
2019-04-13T15:25:53.399Z,29.90
2019-04-13T15:28:28.757Z,30.00
2019-04-13T15:31:00.184Z,29.50
2019-04-13T15:33:30.541Z,29.40
2019-04-13T15:36:04.715Z,29.40
2019-04-13T15:38:42.841Z,30.00
2019-04-13T15:41:14.198Z,29.90
2019-04-13T15:43:45.333Z,29.30
2019-04-13T15:46:21.389Z,29.40
2019-04-13T15:48:49.952Z,29.50
2019-04-13T15:51:24.393Z,29.10
2019-04-13T15:53:54.450Z,29.80
2019-04-13T15:56:27.427Z,30.00
2019-04-13T15:58:59.454Z,30.00
2019-04-13T16:01:32.443Z,29.80
2019-04-13T16:04:03.250Z,29.10
2019-04-13T16:06:35.853Z,29.10
2019-04-13T16:09:12.610Z,29.70
2019-04-13T16:11:58.060Z,29.70
2019-04-13T16:14:24.829Z,30.50
2019-04-13T16:16:56.612Z,31.40
2019-04-13T16:19:29.227Z,31.40
2019-04-13T16:22:00.496Z,32.30
2019-04-13T16:24:33.160Z,32.40
2019-04-13T16:27:05.641Z,33.90
2019-04-13T16:29:57.663Z,35.00
2019-04-13T16:32:36.865Z,34.70
2019-04-13T16:35:14.176Z,35.10
2019-04-13T16:37:50.824Z,35.50
2019-04-13T16:40:22.787Z,36.10
2019-04-13T16:42:55.168Z,35.90
2019-04-13T16:45:39.432Z,36.10
2019-04-13T16:48:23.203Z,36.10
2019-04-13T16:51:22.661Z,36.80
2019-04-13T16:53:53.913Z,37.00
2019-04-13T16:56:43.675Z,37.20
2019-04-13T16:59:32.237Z,36.60
2019-04-13T17:02:11.043Z,36.70
2019-04-13T17:04:42.833Z,37.30
2019-04-13T17:07:13.325Z,37.10
2019-04-13T17:09:44.313Z,37.50
2019-04-13T17:12:26.616Z,38.30
2019-04-13T17:14:52.051Z,38.70
2019-04-13T17:17:28.537Z,39.10
2019-04-13T17:20:00.289Z,39.40
2019-04-13T17:22:32.962Z,40.00
2019-04-13T17:25:07.838Z,40.20
2019-04-13T17:28:07.429Z,40.80
2019-04-13T17:30:43.187Z,41.00
2019-04-13T17:33:12.911Z,41.60
2019-04-13T17:35:43.873Z,41.80
2019-04-13T17:38:15.637Z,42.20
2019-04-13T17:40:49.797Z,42.70
2019-04-13T17:43:38.751Z,43.00
2019-04-13T17:46:17.715Z,43.50
2019-04-13T17:49:00.600Z,43.80
2019-04-13T17:51:33.465Z,44.10
2019-04-13T17:54:15.308Z,44.60
2019-04-13T17:56:51.345Z,44.60
2019-04-13T17:59:40.724Z,45.10
2019-04-13T18:02:15.552Z,45.10
2019-04-13T18:04:50.004Z,45.50
2019-04-13T18:07:37.289Z,45.90
2019-04-13T18:10:21.350Z,46.20
2019-04-13T18:12:58.275Z,46.40
2019-04-13T18:15:34.740Z,46.50
2019-04-13T18:18:24.757Z,46.70
2019-04-13T18:20:57.131Z,47.20
2019-04-13T18:23:29.640Z,47.20
2019-04-13T18:26:01.312Z,47.20
2019-04-13T18:28:42.207Z,47.50
2019-04-13T18:31:12.792Z,47.90
2019-04-13T18:33:45.377Z,48.10
2019-04-13T18:36:32.075Z,48.20
2019-04-13T18:39:09.205Z,48.50
2019-04-13T18:41:41.706Z,48.80
2019-04-13T18:44:13.686Z,49.00
2019-04-13T18:46:52.656Z,49.20
2019-04-13T18:49:23.892Z,49.50
2019-04-13T18:51:54.399Z,49.60
2019-04-13T18:54:25.879Z,49.80
2019-04-13T18:57:02.598Z,49.90
2019-04-13T18:59:48.834Z,50.10
2019-04-13T19:02:19.900Z,50.40
2019-04-13T19:04:54.908Z,50.40
2019-04-13T19:07:26.008Z,50.80
2019-04-13T19:09:58.072Z,50.80
2019-04-13T19:12:35.371Z,51.10
2019-04-13T19:15:07.677Z,51.10
2019-04-13T19:17:39.004Z,51.50
2019-04-13T19:20:14.960Z,51.90
2019-04-13T19:22:46.020Z,52.10
2019-04-13T19:25:18.102Z,52.50
2019-04-13T19:27:49.124Z,52.70
2019-04-13T19:30:21.212Z,53.10
2019-04-13T19:32:52.248Z,53.40
2019-04-13T19:35:30.398Z,53.80
2019-04-13T19:38:09.408Z,54.20
2019-04-13T19:40:43.504Z,54.20
2019-04-13T19:43:16.542Z,54.30
2019-04-13T19:45:53.993Z,54.50
2019-04-13T19:48:24.972Z,55.30
2019-04-13T19:50:57.157Z,55.60
2019-04-13T19:53:45.765Z,56.00
2019-04-13T19:56:23.282Z,56.40
2019-04-13T19:58:54.632Z,57.00
2019-04-13T20:01:28.536Z,57.30
2019-04-13T20:04:00.644Z,57.40
2019-04-13T20:06:30.736Z,57.80
2019-04-13T20:09:09.178Z,58.10
2019-04-13T20:11:40.252Z,58.40
2019-04-13T20:14:14.697Z,59.10
2019-04-13T20:16:43.257Z,59.40
2019-04-13T20:19:15.550Z,59.60
2019-04-13T20:21:47.656Z,60.20
2019-04-13T20:24:20.289Z,60.20
2019-04-13T20:26:51.381Z,60.90
2019-04-13T20:29:25.358Z,61.40
2019-04-13T20:32:08.170Z,61.70
2019-04-13T20:34:40.157Z,61.90
2019-04-13T20:37:12.118Z,62.10
2019-04-13T20:39:48.134Z,62.70
2019-04-13T20:42:22.047Z,63.20
2019-04-13T20:44:50.065Z,63.70
2019-04-13T20:47:22.360Z,64.20
2019-04-13T20:49:53.606Z,64.90
2019-04-13T20:52:23.697Z,65.40
2019-04-13T20:54:55.894Z,65.80
2019-04-13T20:57:26.124Z,66.50
2019-04-13T20:59:56.604Z,66.70
2019-04-13T21:02:26.781Z,67.00
2019-04-13T21:04:58.812Z,67.50
2019-04-13T21:07:29.216Z,67.30
2019-04-13T21:10:01.289Z,67.50
2019-04-13T21:12:33.312Z,67.80
2019-04-13T21:15:05.411Z,67.80
2019-04-13T21:17:42.409Z,68.00
2019-04-13T21:20:19.392Z,68.20
2019-04-13T21:22:52.910Z,68.20
2019-04-13T21:25:25.517Z,68.40
2019-04-13T21:28:02.409Z,68.50
2019-04-13T21:30:33.986Z,68.80
2019-04-13T21:33:04.186Z,68.20
2019-04-13T21:35:36.221Z,68.10
2019-04-13T21:38:06.416Z,68.50
2019-04-13T21:40:36.592Z,68.60
2019-04-13T21:43:08.428Z,68.10
2019-04-13T21:45:45.333Z,67.80
2019-04-13T21:48:15.505Z,67.60
2019-04-13T21:51:03.094Z,67.70
2019-04-13T21:53:42.113Z,67.20
2019-04-13T21:56:14.373Z,67.00
2019-04-13T21:58:46.963Z,66.60
2019-04-13T22:01:35.068Z,66.10
2019-04-13T22:04:07.360Z,65.60
2019-04-13T22:06:40.937Z,65.50
2019-04-13T22:09:13.049Z,65.70
2019-04-13T22:11:51.438Z,65.40
2019-04-13T22:14:35.320Z,65.20
2019-04-13T22:17:05.338Z,65.50
2019-04-13T22:19:37.472Z,65.20
2019-04-13T22:22:09.662Z,65.00
2019-04-13T22:24:39.964Z,64.90
2019-04-13T22:27:16.247Z,64.60
2019-04-13T22:29:53.100Z,64.40
2019-04-13T22:32:27.773Z,64.00
2019-04-13T22:35:04.381Z,64.00
2019-04-13T22:37:34.560Z,63.90
2019-04-13T22:40:06.884Z,64.10
2019-04-13T22:42:40.710Z,64.20
2019-04-13T22:45:15.208Z,64.10
2019-04-13T22:47:54.146Z,64.20
2019-04-13T22:50:26.812Z,64.30
2019-04-13T22:53:12.420Z,64.50
2019-04-13T22:56:00.565Z,64.50
2019-04-13T22:58:38.321Z,64.70
2019-04-13T23:01:18.489Z,64.70
2019-04-13T23:03:55.340Z,64.80
2019-04-13T23:06:33.434Z,64.90
2019-04-13T23:09:06.298Z,64.90
2019-04-13T23:11:36.673Z,65.00
2019-04-13T23:14:08.950Z,65.10
2019-04-13T23:16:41.284Z,65.00
2019-04-13T23:19:13.233Z,65.20
2019-04-13T23:21:50.544Z,65.30
2019-04-13T23:24:21.596Z,65.40
2019-04-13T23:26:53.693Z,65.60
2019-04-13T23:29:34.668Z,65.70
2019-04-13T23:32:07.260Z,66.00
2019-04-13T23:34:43.051Z,65.90
2019-04-13T23:37:13.371Z,65.70
2019-04-13T23:39:43.471Z,65.90
2019-04-13T23:42:15.535Z,66.00
2019-04-13T23:44:46.460Z,66.10
2019-04-13T23:47:18.631Z,66.30
2019-04-13T23:49:49.296Z,66.60
2019-04-13T23:52:26.114Z,66.70
2019-04-13T23:54:56.667Z,67.00
2019-04-13T23:57:44.359Z,67.40
